sensor_id;sensor_type;location;lat;lon;timestamp;temperature;humidity
16505;HTU21D;8365;51.030;4.696;2023-04-03T00:00:55;3.73;118.99
16505;HTU21D;8365;51.030;4.696;2023-04-03T00:03:26;3.52;118.99
16505;HTU21D;8365;51.030;4.696;2023-04-03T00:05:56;3.68;118.99
16505;HTU21D;8365;51.030;4.696;2023-04-03T00:08:32;3.77;118.99
16505;HTU21D;8365;51.030;4.696;2023-04-03T00:11:04;3.60;118.99
16505;HTU21D;8365;51.030;4.696;2023-04-03T00:13:36;3.65;118.99
16505;HTU21D;8365;51.030;4.696;2023-04-03T00:16:07;3.75;118.99
16505;HTU21D;8365;51.030;4.696;2023-04-03T00:18:40;3.82;118.99
16505;HTU21D;8365;51.030;4.696;2023-04-03T00:21:12;3.82;118.99
16505;HTU21D;8365;51.030;4.696;2023-04-03T00:23:43;3.79;118.99
16505;HTU21D;8365;51.030;4.696;2023-04-03T00:26:13;3.85;118.99
16505;HTU21D;8365;51.030;4.696;2023-04-03T00:28:44;3.84;118.99
16505;HTU21D;8365;51.030;4.696;2023-04-03T00:31:16;3.88;118.99
16505;HTU21D;8365;51.030;4.696;2023-04-03T00:33:48;3.91;118.99
16505;HTU21D;8365;51.030;4.696;2023-04-03T00:36:18;3.83;118.99
16505;HTU21D;8365;51.030;4.696;2023-04-03T00:38:49;3.90;118.99
16505;HTU21D;8365;51.030;4.696;2023-04-03T00:41:19;3.79;118.99
16505;HTU21D;8365;51.030;4.696;2023-04-03T00:43:50;3.68;118.99
16505;HTU21D;8365;51.030;4.696;2023-04-03T00:46:20;3.86;118.99
16505;HTU21D;8365;51.030;4.696;2023-04-03T00:48:53;3.89;118.99
16505;HTU21D;8365;51.030;4.696;2023-04-03T00:51:25;3.83;118.99
16505;HTU21D;8365;51.030;4.696;2023-04-03T00:53:59;3.90;118.99
16505;HTU21D;8365;51.030;4.696;2023-04-03T00:56:31;4.01;118.99
16505;HTU21D;8365;51.030;4.696;2023-04-03T00:59:10;3.94;118.99
16505;HTU21D;8365;51.030;4.696;2023-04-03T01:01:42;3.85;118.99
16505;HTU21D;8365;51.030;4.696;2023-04-03T01:04:31;3.90;118.99
16505;HTU21D;8365;51.030;4.696;2023-04-03T01:07:13;3.92;118.99
16505;HTU21D;8365;51.030;4.696;2023-04-03T01:09:46;3.83;118.99
16505;HTU21D;8365;51.030;4.696;2023-04-03T01:14:55;3.93;118.99
16505;HTU21D;8365;51.030;4.696;2023-04-03T01:17:38;3.86;118.99
16505;HTU21D;8365;51.030;4.696;2023-04-03T01:25:29;3.88;118.99
16505;HTU21D;8365;51.030;4.696;2023-04-03T01:28:00;3.89;118.99
16505;HTU21D;8365;51.030;4.696;2023-04-03T01:30:39;3.76;118.99
16505;HTU21D;8365;51.030;4.696;2023-04-03T01:33:12;3.72;118.99
16505;HTU21D;8365;51.030;4.696;2023-04-03T01:35:43;3.88;118.99
16505;HTU21D;8365;51.030;4.696;2023-04-03T01:38:13;3.77;118.99
16505;HTU21D;8365;51.030;4.696;2023-04-03T01:40:44;3.68;118.99
16505;HTU21D;8365;51.030;4.696;2023-04-03T01:43:14;3.73;118.99
16505;HTU21D;8365;51.030;4.696;2023-04-03T01:45:47;3.86;118.99
16505;HTU21D;8365;51.030;4.696;2023-04-03T01:48:19;3.85;118.99
16505;HTU21D;8365;51.030;4.696;2023-04-03T01:50:50;3.69;118.99
16505;HTU21D;8365;51.030;4.696;2023-04-03T01:53:22;3.65;118.99
16505;HTU21D;8365;51.030;4.696;2023-04-03T01:55:52;3.83;118.99
16505;HTU21D;8365;51.030;4.696;2023-04-03T01:58:24;3.72;118.99
16505;HTU21D;8365;51.030;4.696;2023-04-03T02:00:54;3.65;118.99
16505;HTU21D;8365;51.030;4.696;2023-04-03T02:03:26;3.65;118.99
16505;HTU21D;8365;51.030;4.696;2023-04-03T02:05:56;3.72;118.99
16505;HTU21D;8365;51.030;4.696;2023-04-03T02:08:27;3.75;118.99
16505;HTU21D;8365;51.030;4.696;2023-04-03T02:10:58;3.71;118.99
16505;HTU21D;8365;51.030;4.696;2023-04-03T02:13:28;3.49;118.99
16505;HTU21D;8365;51.030;4.696;2023-04-03T02:15:58;3.69;118.99
16505;HTU21D;8365;51.030;4.696;2023-04-03T02:18:31;3.69;118.99
16505;HTU21D;8365;51.030;4.696;2023-04-03T02:21:02;3.67;118.99
16505;HTU21D;8365;51.030;4.696;2023-04-03T02:23:33;3.70;118.99
16505;HTU21D;8365;51.030;4.696;2023-04-03T02:26:11;3.68;118.99
16505;HTU21D;8365;51.030;4.696;2023-04-03T02:28:42;3.47;118.99
16505;HTU21D;8365;51.030;4.696;2023-04-03T02:31:15;3.34;118.99
16505;HTU21D;8365;51.030;4.696;2023-04-03T02:33:46;3.43;118.99
16505;HTU21D;8365;51.030;4.696;2023-04-03T02:36:16;3.56;118.99
16505;HTU21D;8365;51.030;4.696;2023-04-03T02:38:49;3.49;118.99
16505;HTU21D;8365;51.030;4.696;2023-04-03T02:41:22;3.39;118.99
16505;HTU21D;8365;51.030;4.696;2023-04-03T02:43:55;3.40;118.99
16505;HTU21D;8365;51.030;4.696;2023-04-03T02:46:26;3.42;118.99
16505;HTU21D;8365;51.030;4.696;2023-04-03T02:48:58;3.49;118.99
16505;HTU21D;8365;51.030;4.696;2023-04-03T02:51:31;3.23;118.99
16505;HTU21D;8365;51.030;4.696;2023-04-03T02:54:03;3.13;118.99
16505;HTU21D;8365;51.030;4.696;2023-04-03T02:56:34;3.03;118.99
16505;HTU21D;8365;51.030;4.696;2023-04-03T02:59:05;3.21;118.99
16505;HTU21D;8365;51.030;4.696;2023-04-03T03:01:36;2.88;118.99
16505;HTU21D;8365;51.030;4.696;2023-04-03T03:04:06;2.95;118.99
16505;HTU21D;8365;51.030;4.696;2023-04-03T03:06:37;3.06;118.99
16505;HTU21D;8365;51.030;4.696;2023-04-03T03:09:10;3.10;118.99
16505;HTU21D;8365;51.030;4.696;2023-04-03T03:11:43;3.13;118.99
16505;HTU21D;8365;51.030;4.696;2023-04-03T03:14:13;3.14;118.99
16505;HTU21D;8365;51.030;4.696;2023-04-03T03:16:44;3.06;118.99
16505;HTU21D;8365;51.030;4.696;2023-04-03T03:19:14;3.15;118.99
16505;HTU21D;8365;51.030;4.696;2023-04-03T03:21:45;3.10;118.99
16505;HTU21D;8365;51.030;4.696;2023-04-03T03:24:16;3.17;118.99
16505;HTU21D;8365;51.030;4.696;2023-04-03T03:26:47;3.09;118.99
16505;HTU21D;8365;51.030;4.696;2023-04-03T03:29:18;3.12;118.99
16505;HTU21D;8365;51.030;4.696;2023-04-03T03:31:48;3.09;118.99
16505;HTU21D;8365;51.030;4.696;2023-04-03T03:34:19;3.02;118.99
16505;HTU21D;8365;51.030;4.696;2023-04-03T03:36:49;2.97;118.99
16505;HTU21D;8365;51.030;4.696;2023-04-03T03:39:22;2.91;118.99
16505;HTU21D;8365;51.030;4.696;2023-04-03T03:41:53;2.90;118.99
16505;HTU21D;8365;51.030;4.696;2023-04-03T03:44:23;2.98;118.99
16505;HTU21D;8365;51.030;4.696;2023-04-03T03:46:54;2.89;118.99
16505;HTU21D;8365;51.030;4.696;2023-04-03T03:49:24;2.98;118.99
16505;HTU21D;8365;51.030;4.696;2023-04-03T03:51:55;2.93;118.99
16505;HTU21D;8365;51.030;4.696;2023-04-03T03:54:28;2.97;118.99
16505;HTU21D;8365;51.030;4.696;2023-04-03T03:56:58;2.89;118.99
16505;HTU21D;8365;51.030;4.696;2023-04-03T03:59:30;2.89;118.99
16505;HTU21D;8365;51.030;4.696;2023-04-03T04:02:02;2.93;118.99
16505;HTU21D;8365;51.030;4.696;2023-04-03T04:04:33;2.93;118.99
16505;HTU21D;8365;51.030;4.696;2023-04-03T04:07:03;2.90;118.99
16505;HTU21D;8365;51.030;4.696;2023-04-03T04:09:34;2.82;118.99
16505;HTU21D;8365;51.030;4.696;2023-04-03T04:12:05;2.90;118.99
16505;HTU21D;8365;51.030;4.696;2023-04-03T04:14:36;2.90;118.99
16505;HTU21D;8365;51.030;4.696;2023-04-03T04:17:07;2.87;118.99
16505;HTU21D;8365;51.030;4.696;2023-04-03T04:19:37;2.90;118.99
16505;HTU21D;8365;51.030;4.696;2023-04-03T04:22:08;2.89;118.99
16505;HTU21D;8365;51.030;4.696;2023-04-03T04:24:38;2.75;118.99
16505;HTU21D;8365;51.030;4.696;2023-04-03T04:27:09;2.75;118.99
16505;HTU21D;8365;51.030;4.696;2023-04-03T04:29:39;2.69;118.99
16505;HTU21D;8365;51.030;4.696;2023-04-03T04:32:10;2.80;118.99
16505;HTU21D;8365;51.030;4.696;2023-04-03T04:34:40;2.79;118.99
16505;HTU21D;8365;51.030;4.696;2023-04-03T04:37:11;2.79;118.99
16505;HTU21D;8365;51.030;4.696;2023-04-03T04:39:41;2.83;118.99
16505;HTU21D;8365;51.030;4.696;2023-04-03T04:42:14;2.75;118.99
16505;HTU21D;8365;51.030;4.696;2023-04-03T04:44:45;2.78;118.99
16505;HTU21D;8365;51.030;4.696;2023-04-03T04:47:17;2.68;118.99
16505;HTU21D;8365;51.030;4.696;2023-04-03T04:49:48;2.59;118.99
16505;HTU21D;8365;51.030;4.696;2023-04-03T04:52:19;2.65;118.99
16505;HTU21D;8365;51.030;4.696;2023-04-03T04:54:49;2.81;118.99
16505;HTU21D;8365;51.030;4.696;2023-04-03T04:57:20;2.69;118.99
16505;HTU21D;8365;51.030;4.696;2023-04-03T04:59:50;2.65;118.99
16505;HTU21D;8365;51.030;4.696;2023-04-03T05:02:21;2.62;118.99
16505;HTU21D;8365;51.030;4.696;2023-04-03T05:04:51;2.70;118.99
16505;HTU21D;8365;51.030;4.696;2023-04-03T05:07:23;2.73;118.99
16505;HTU21D;8365;51.030;4.696;2023-04-03T05:09:54;2.55;118.99
16505;HTU21D;8365;51.030;4.696;2023-04-03T05:12:25;2.61;118.99
16505;HTU21D;8365;51.030;4.696;2023-04-03T05:14:57;2.64;118.99
16505;HTU21D;8365;51.030;4.696;2023-04-03T05:17:29;2.40;118.99
16505;HTU21D;8365;51.030;4.696;2023-04-03T05:20:00;2.20;118.99
16505;HTU21D;8365;51.030;4.696;2023-04-03T05:22:33;2.28;118.99
16505;HTU21D;8365;51.030;4.696;2023-04-03T05:25:04;2.14;118.99
16505;HTU21D;8365;51.030;4.696;2023-04-03T05:27:35;2.22;118.99
16505;HTU21D;8365;51.030;4.696;2023-04-03T05:30:08;1.91;118.99
16505;HTU21D;8365;51.030;4.696;2023-04-03T05:32:38;1.94;118.99
16505;HTU21D;8365;51.030;4.696;2023-04-03T05:35:10;2.12;118.99
16505;HTU21D;8365;51.030;4.696;2023-04-03T05:37:41;2.07;118.99
16505;HTU21D;8365;51.030;4.696;2023-04-03T05:40:13;2.01;118.99
16505;HTU21D;8365;51.030;4.696;2023-04-03T05:42:44;2.03;118.99
16505;HTU21D;8365;51.030;4.696;2023-04-03T05:45:15;2.10;118.99
16505;HTU21D;8365;51.030;4.696;2023-04-03T05:47:47;2.24;118.99
16505;HTU21D;8365;51.030;4.696;2023-04-03T05:50:20;2.24;118.99
16505;HTU21D;8365;51.030;4.696;2023-04-03T05:52:52;2.22;118.99
16505;HTU21D;8365;51.030;4.696;2023-04-03T05:55:26;2.38;118.99
16505;HTU21D;8365;51.030;4.696;2023-04-03T05:57:57;2.39;118.99
16505;HTU21D;8365;51.030;4.696;2023-04-03T06:00:28;2.54;118.99
16505;HTU21D;8365;51.030;4.696;2023-04-03T06:02:59;2.65;118.99
16505;HTU21D;8365;51.030;4.696;2023-04-03T06:05:30;2.55;118.99
16505;HTU21D;8365;51.030;4.696;2023-04-03T06:08:00;2.70;118.99
16505;HTU21D;8365;51.030;4.696;2023-04-03T06:10:31;2.80;118.99
16505;HTU21D;8365;51.030;4.696;2023-04-03T06:13:02;2.85;118.99
16505;HTU21D;8365;51.030;4.696;2023-04-03T06:15:35;2.99;118.99
16505;HTU21D;8365;51.030;4.696;2023-04-03T06:18:05;2.95;118.99
16505;HTU21D;8365;51.030;4.696;2023-04-03T06:20:36;3.03;118.99
16505;HTU21D;8365;51.030;4.696;2023-04-03T06:23:07;3.09;118.99
16505;HTU21D;8365;51.030;4.696;2023-04-03T06:25:38;3.18;118.99
16505;HTU21D;8365;51.030;4.696;2023-04-03T06:28:09;3.19;118.99
16505;HTU21D;8365;51.030;4.696;2023-04-03T06:30:40;3.29;118.99
16505;HTU21D;8365;51.030;4.696;2023-04-03T06:33:10;3.35;118.99
16505;HTU21D;8365;51.030;4.696;2023-04-03T06:35:41;3.43;118.99
16505;HTU21D;8365;51.030;4.696;2023-04-03T06:38:11;3.46;118.99
16505;HTU21D;8365;51.030;4.696;2023-04-03T06:40:42;3.34;118.99
16505;HTU21D;8365;51.030;4.696;2023-04-03T06:43:12;3.35;118.99
16505;HTU21D;8365;51.030;4.696;2023-04-03T06:45:43;3.36;118.99
16505;HTU21D;8365;51.030;4.696;2023-04-03T06:48:14;3.54;118.99
16505;HTU21D;8365;51.030;4.696;2023-04-03T06:50:47;3.68;118.99
16505;HTU21D;8365;51.030;4.696;2023-04-03T06:53:18;3.63;118.99
16505;HTU21D;8365;51.030;4.696;2023-04-03T06:55:48;3.90;118.99
16505;HTU21D;8365;51.030;4.696;2023-04-03T06:58:19;3.99;118.99
16505;HTU21D;8365;51.030;4.696;2023-04-03T07:00:49;3.90;118.99
16505;HTU21D;8365;51.030;4.696;2023-04-03T07:03:20;3.93;118.99
16505;HTU21D;8365;51.030;4.696;2023-04-03T07:05:50;3.88;118.99
16505;HTU21D;8365;51.030;4.696;2023-04-03T07:08:21;4.05;118.99
16505;HTU21D;8365;51.030;4.696;2023-04-03T07:10:53;4.13;118.99
16505;HTU21D;8365;51.030;4.696;2023-04-03T07:13:24;4.26;118.99
16505;HTU21D;8365;51.030;4.696;2023-04-03T07:15:55;4.24;118.99
16505;HTU21D;8365;51.030;4.696;2023-04-03T07:18:25;4.34;118.99
16505;HTU21D;8365;51.030;4.696;2023-04-03T07:20:56;4.48;118.99
16505;HTU21D;8365;51.030;4.696;2023-04-03T07:23:27;4.57;118.99
16505;HTU21D;8365;51.030;4.696;2023-04-03T07:25:58;4.63;118.99
16505;HTU21D;8365;51.030;4.696;2023-04-03T07:28:28;4.77;118.99
16505;HTU21D;8365;51.030;4.696;2023-04-03T07:31:02;4.80;118.99
16505;HTU21D;8365;51.030;4.696;2023-04-03T07:33:36;4.89;116.82
16505;HTU21D;8365;51.030;4.696;2023-04-03T07:36:10;5.02;117.90
16505;HTU21D;8365;51.030;4.696;2023-04-03T07:38:45;5.03;115.50
16505;HTU21D;8365;51.030;4.696;2023-04-03T07:41:19;5.21;115.07
16505;HTU21D;8365;51.030;4.696;2023-04-03T07:43:53;5.24;115.16
16505;HTU21D;8365;51.030;4.696;2023-04-03T07:46:26;5.32;115.12
16505;HTU21D;8365;51.030;4.696;2023-04-03T07:48:57;5.32;113.07
16505;HTU21D;8365;51.030;4.696;2023-04-03T07:51:27;5.35;114.51
16505;HTU21D;8365;51.030;4.696;2023-04-03T07:54:01;5.63;114.19
16505;HTU21D;8365;51.030;4.696;2023-04-03T07:56:31;5.82;111.94
16505;HTU21D;8365;51.030;4.696;2023-04-03T07:59:02;5.92;110.48
16505;HTU21D;8365;51.030;4.696;2023-04-03T08:01:34;6.37;112.00
16505;HTU21D;8365;51.030;4.696;2023-04-03T08:04:06;6.88;105.55
16505;HTU21D;8365;51.030;4.696;2023-04-03T08:06:39;7.44;102.83
16505;HTU21D;8365;51.030;4.696;2023-04-03T08:09:10;8.03;98.27
16505;HTU21D;8365;51.030;4.696;2023-04-03T08:11:41;8.02;99.06
16505;HTU21D;8365;51.030;4.696;2023-04-03T08:14:12;8.20;97.55
16505;HTU21D;8365;51.030;4.696;2023-04-03T08:16:47;8.05;98.81
16505;HTU21D;8365;51.030;4.696;2023-04-03T08:19:19;8.02;98.23
16505;HTU21D;8365;51.030;4.696;2023-04-03T08:21:50;8.13;95.66
16505;HTU21D;8365;51.030;4.696;2023-04-03T08:24:21;7.97;95.50
16505;HTU21D;8365;51.030;4.696;2023-04-03T08:26:51;7.84;98.87
16505;HTU21D;8365;51.030;4.696;2023-04-03T08:29:22;7.91;94.34
16505;HTU21D;8365;51.030;4.696;2023-04-03T08:31:53;7.70;94.32
16505;HTU21D;8365;51.030;4.696;2023-04-03T08:34:28;7.75;94.35
16505;HTU21D;8365;51.030;4.696;2023-04-03T08:36:58;7.71;96.09
16505;HTU21D;8365;51.030;4.696;2023-04-03T08:39:31;7.79;92.29
16505;HTU21D;8365;51.030;4.696;2023-04-03T08:42:06;8.08;96.97
16505;HTU21D;8365;51.030;4.696;2023-04-03T08:47:38;8.94;92.22
16505;HTU21D;8365;51.030;4.696;2023-04-03T08:50:17;9.35;89.27
16505;HTU21D;8365;51.030;4.696;2023-04-03T08:52:58;10.04;88.85
16505;HTU21D;8365;51.030;4.696;2023-04-03T08:55:33;11.04;81.69
16505;HTU21D;8365;51.030;4.696;2023-04-03T08:58:06;12.01;75.01
16505;HTU21D;8365;51.030;4.696;2023-04-03T09:03:14;11.77;71.04
16505;HTU21D;8365;51.030;4.696;2023-04-03T09:05:57;12.11;71.37
16505;HTU21D;8365;51.030;4.696;2023-04-03T09:08:43;12.89;63.44
16505;HTU21D;8365;51.030;4.696;2023-04-03T09:11:20;13.47;62.28
16505;HTU21D;8365;51.030;4.696;2023-04-03T09:17:02;13.60;60.47
16505;HTU21D;8365;51.030;4.696;2023-04-03T09:19:54;12.75;59.54
16505;HTU21D;8365;51.030;4.696;2023-04-03T09:22:28;13.02;65.41
16505;HTU21D;8365;51.030;4.696;2023-04-03T09:25:02;13.25;67.37
16505;HTU21D;8365;51.030;4.696;2023-04-03T09:27:36;13.81;60.72
16505;HTU21D;8365;51.030;4.696;2023-04-03T09:30:20;13.96;60.82
16505;HTU21D;8365;51.030;4.696;2023-04-03T09:32:53;14.91;62.65
16505;HTU21D;8365;51.030;4.696;2023-04-03T09:35:28;15.13;58.75
16505;HTU21D;8365;51.030;4.696;2023-04-03T09:38:22;14.71;62.06
16505;HTU21D;8365;51.030;4.696;2023-04-03T09:41:04;15.21;55.17
16505;HTU21D;8365;51.030;4.696;2023-04-03T09:43:37;15.00;57.10
16505;HTU21D;8365;51.030;4.696;2023-04-03T09:46:29;14.50;56.74
16505;HTU21D;8365;51.030;4.696;2023-04-03T09:49:02;15.07;57.94
16505;HTU21D;8365;51.030;4.696;2023-04-03T09:51:33;14.78;57.66
16505;HTU21D;8365;51.030;4.696;2023-04-03T09:54:36;15.56;52.21
16505;HTU21D;8365;51.030;4.696;2023-04-03T09:57:13;16.22;51.10
16505;HTU21D;8365;51.030;4.696;2023-04-03T10:00:00;15.51;52.56
16505;HTU21D;8365;51.030;4.696;2023-04-03T10:10:46;17.89;44.54
16505;HTU21D;8365;51.030;4.696;2023-04-03T10:13:20;17.97;44.35
16505;HTU21D;8365;51.030;4.696;2023-04-03T10:15:58;19.09;41.46
16505;HTU21D;8365;51.030;4.696;2023-04-03T10:27:18;17.08;45.19
16505;HTU21D;8365;51.030;4.696;2023-04-03T10:33:31;18.63;44.56
16505;HTU21D;8365;51.030;4.696;2023-04-03T10:36:16;18.02;37.44
16505;HTU21D;8365;51.030;4.696;2023-04-03T10:39:19;18.55;38.52
16505;HTU21D;8365;51.030;4.696;2023-04-03T10:42:15;18.95;36.88
16505;HTU21D;8365;51.030;4.696;2023-04-03T10:45:00;19.30;39.49
16505;HTU21D;8365;51.030;4.696;2023-04-03T10:47:37;18.42;41.81
16505;HTU21D;8365;51.030;4.696;2023-04-03T10:56:31;19.40;39.12
16505;HTU21D;8365;51.030;4.696;2023-04-03T11:01:55;20.73;33.59
16505;HTU21D;8365;51.030;4.696;2023-04-03T11:04:29;19.56;33.76
16505;HTU21D;8365;51.030;4.696;2023-04-03T11:07:11;19.33;33.20
16505;HTU21D;8365;51.030;4.696;2023-04-03T11:09:45;20.25;34.67
16505;HTU21D;8365;51.030;4.696;2023-04-03T11:12:18;19.87;35.23
16505;HTU21D;8365;51.030;4.696;2023-04-03T11:14:52;20.35;36.85
16505;HTU21D;8365;51.030;4.696;2023-04-03T11:17:33;18.28;33.37
16505;HTU21D;8365;51.030;4.696;2023-04-03T11:20:21;17.96;35.74
16505;HTU21D;8365;51.030;4.696;2023-04-03T11:23:01;17.50;32.73
16505;HTU21D;8365;51.030;4.696;2023-04-03T11:25:35;18.25;35.08
16505;HTU21D;8365;51.030;4.696;2023-04-03T11:28:12;17.25;32.22
16505;HTU21D;8365;51.030;4.696;2023-04-03T11:36:32;19.81;34.02
16505;HTU21D;8365;51.030;4.696;2023-04-03T11:39:17;20.75;31.28
16505;HTU21D;8365;51.030;4.696;2023-04-03T11:41:52;20.70;27.46
16505;HTU21D;8365;51.030;4.696;2023-04-03T11:44:38;21.00;30.14
16505;HTU21D;8365;51.030;4.696;2023-04-03T11:47:10;21.47;27.87
16505;HTU21D;8365;51.030;4.696;2023-04-03T11:49:57;21.19;27.07
16505;HTU21D;8365;51.030;4.696;2023-04-03T12:11:14;21.69;26.23
16505;HTU21D;8365;51.030;4.696;2023-04-03T12:24:28;22.26;26.11
16505;HTU21D;8365;51.030;4.696;2023-04-03T12:29:36;21.68;25.96
16505;HTU21D;8365;51.030;4.696;2023-04-03T12:46:45;21.84;27.65
16505;HTU21D;8365;51.030;4.696;2023-04-03T12:51:57;22.92;26.49
16505;HTU21D;8365;51.030;4.696;2023-04-03T12:54:37;23.02;25.17
16505;HTU21D;8365;51.030;4.696;2023-04-03T12:57:21;20.39;27.33
16505;HTU21D;8365;51.030;4.696;2023-04-03T12:59:51;19.53;30.01
16505;HTU21D;8365;51.030;4.696;2023-04-03T13:05:04;19.09;32.75
16505;HTU21D;8365;51.030;4.696;2023-04-03T13:07:37;20.65;31.48
16505;HTU21D;8365;51.030;4.696;2023-04-03T13:15:30;22.09;26.52
16505;HTU21D;8365;51.030;4.696;2023-04-03T13:21:00;22.08;24.91
16505;HTU21D;8365;51.030;4.696;2023-04-03T13:23:34;22.06;25.66
16505;HTU21D;8365;51.030;4.696;2023-04-03T13:26:06;22.77;27.58
16505;HTU21D;8365;51.030;4.696;2023-04-03T13:28:50;21.92;24.85
16505;HTU21D;8365;51.030;4.696;2023-04-03T13:31:27;21.09;26.49
16505;HTU21D;8365;51.030;4.696;2023-04-03T13:34:16;21.50;25.53
16505;HTU21D;8365;51.030;4.696;2023-04-03T13:39:29;21.89;28.13
16505;HTU21D;8365;51.030;4.696;2023-04-03T13:42:16;22.16;26.30
16505;HTU21D;8365;51.030;4.696;2023-04-03T13:45:09;21.62;28.51
16505;HTU21D;8365;51.030;4.696;2023-04-03T13:47:42;21.60;24.37
16505;HTU21D;8365;51.030;4.696;2023-04-03T13:52:52;20.53;25.73
16505;HTU21D;8365;51.030;4.696;2023-04-03T13:55:30;20.42;26.92
16505;HTU21D;8365;51.030;4.696;2023-04-03T13:58:20;18.93;24.93
16505;HTU21D;8365;51.030;4.696;2023-04-03T14:01:17;20.62;25.06
16505;HTU21D;8365;51.030;4.696;2023-04-03T14:06:29;21.73;24.15
16505;HTU21D;8365;51.030;4.696;2023-04-03T14:09:00;20.46;26.42
16505;HTU21D;8365;51.030;4.696;2023-04-03T14:11:30;21.55;23.88
16505;HTU21D;8365;51.030;4.696;2023-04-03T14:14:05;22.50;24.71
16505;HTU21D;8365;51.030;4.696;2023-04-03T14:16:40;21.24;23.86
16505;HTU21D;8365;51.030;4.696;2023-04-03T14:19:23;20.19;24.24
16505;HTU21D;8365;51.030;4.696;2023-04-03T14:21:55;19.37;25.63
16505;HTU21D;8365;51.030;4.696;2023-04-03T14:24:26;19.44;29.13
16505;HTU21D;8365;51.030;4.696;2023-04-03T14:26:57;20.22;27.42
16505;HTU21D;8365;51.030;4.696;2023-04-03T14:29:28;19.89;24.76
16505;HTU21D;8365;51.030;4.696;2023-04-03T14:31:59;20.02;28.42
16505;HTU21D;8365;51.030;4.696;2023-04-03T14:34:30;20.00;28.33
16505;HTU21D;8365;51.030;4.696;2023-04-03T14:37:00;20.96;25.90
16505;HTU21D;8365;51.030;4.696;2023-04-03T14:39:31;21.39;24.67
16505;HTU21D;8365;51.030;4.696;2023-04-03T14:42:01;21.58;23.93
16505;HTU21D;8365;51.030;4.696;2023-04-03T14:44:33;21.55;25.20
16505;HTU21D;8365;51.030;4.696;2023-04-03T14:47:03;21.16;23.82
16505;HTU21D;8365;51.030;4.696;2023-04-03T14:49:34;19.88;25.05
16505;HTU21D;8365;51.030;4.696;2023-04-03T14:52:05;20.83;25.01
16505;HTU21D;8365;51.030;4.696;2023-04-03T14:54:36;21.19;24.30
16505;HTU21D;8365;51.030;4.696;2023-04-03T14:57:12;21.39;23.87
16505;HTU21D;8365;51.030;4.696;2023-04-03T14:59:44;21.85;23.50
16505;HTU21D;8365;51.030;4.696;2023-04-03T15:04:46;21.66;24.91
16505;HTU21D;8365;51.030;4.696;2023-04-03T15:07:17;22.07;24.98
16505;HTU21D;8365;51.030;4.696;2023-04-03T15:09:48;21.84;24.72
16505;HTU21D;8365;51.030;4.696;2023-04-03T15:12:20;21.98;23.25
16505;HTU21D;8365;51.030;4.696;2023-04-03T15:14:51;21.29;24.19
16505;HTU21D;8365;51.030;4.696;2023-04-03T15:17:22;20.71;25.11
16505;HTU21D;8365;51.030;4.696;2023-04-03T15:19:53;21.60;25.19
16505;HTU21D;8365;51.030;4.696;2023-04-03T15:22:24;21.92;24.48
16505;HTU21D;8365;51.030;4.696;2023-04-03T15:24:56;21.19;26.29
16505;HTU21D;8365;51.030;4.696;2023-04-03T15:27:27;21.02;25.38
16505;HTU21D;8365;51.030;4.696;2023-04-03T15:29:58;20.42;25.88
16505;HTU21D;8365;51.030;4.696;2023-04-03T15:32:29;19.60;26.07
16505;HTU21D;8365;51.030;4.696;2023-04-03T15:35:00;20.45;26.68
16505;HTU21D;8365;51.030;4.696;2023-04-03T15:37:30;19.31;28.59
16505;HTU21D;8365;51.030;4.696;2023-04-03T15:40:04;20.10;26.60
16505;HTU21D;8365;51.030;4.696;2023-04-03T15:42:34;19.72;28.09
16505;HTU21D;8365;51.030;4.696;2023-04-03T15:45:06;20.29;27.56
16505;HTU21D;8365;51.030;4.696;2023-04-03T15:47:37;19.50;26.92
16505;HTU21D;8365;51.030;4.696;2023-04-03T15:50:08;19.85;27.82
16505;HTU21D;8365;51.030;4.696;2023-04-03T15:52:42;19.74;27.05
16505;HTU21D;8365;51.030;4.696;2023-04-03T15:55:13;19.56;27.00
16505;HTU21D;8365;51.030;4.696;2023-04-03T15:57:45;19.81;29.32
16505;HTU21D;8365;51.030;4.696;2023-04-03T16:00:18;19.67;27.25
16505;HTU21D;8365;51.030;4.696;2023-04-03T16:02:52;18.17;27.89
16505;HTU21D;8365;51.030;4.696;2023-04-03T16:05:25;18.02;29.14
16505;HTU21D;8365;51.030;4.696;2023-04-03T16:07:57;17.43;30.81
16505;HTU21D;8365;51.030;4.696;2023-04-03T16:10:28;16.93;31.99
16505;HTU21D;8365;51.030;4.696;2023-04-03T16:12:58;17.25;30.63
16505;HTU21D;8365;51.030;4.696;2023-04-03T16:15:29;16.93;29.22
16505;HTU21D;8365;51.030;4.696;2023-04-03T16:18:01;17.68;33.27
16505;HTU21D;8365;51.030;4.696;2023-04-03T16:20:32;17.67;31.25
16505;HTU21D;8365;51.030;4.696;2023-04-03T16:23:02;18.27;29.46
16505;HTU21D;8365;51.030;4.696;2023-04-03T16:25:33;18.61;28.32
16505;HTU21D;8365;51.030;4.696;2023-04-03T16:28:05;18.43;29.79
16505;HTU21D;8365;51.030;4.696;2023-04-03T16:30:36;18.25;31.16
16505;HTU21D;8365;51.030;4.696;2023-04-03T16:33:06;18.86;30.32
16505;HTU21D;8365;51.030;4.696;2023-04-03T16:35:39;18.33;30.81
16505;HTU21D;8365;51.030;4.696;2023-04-03T16:38:10;18.76;31.11
16505;HTU21D;8365;51.030;4.696;2023-04-03T16:40:41;18.55;30.46
16505;HTU21D;8365;51.030;4.696;2023-04-03T16:43:11;18.42;31.01
16505;HTU21D;8365;51.030;4.696;2023-04-03T16:45:42;18.34;29.69
16505;HTU21D;8365;51.030;4.696;2023-04-03T16:48:13;17.81;31.30
16505;HTU21D;8365;51.030;4.696;2023-04-03T16:50:48;17.41;33.43
16505;HTU21D;8365;51.030;4.696;2023-04-03T16:53:23;17.34;33.58
16505;HTU21D;8365;51.030;4.696;2023-04-03T16:55:56;17.36;32.25
16505;HTU21D;8365;51.030;4.696;2023-04-03T16:58:27;16.75;32.62
16505;HTU21D;8365;51.030;4.696;2023-04-03T17:00:57;15.53;33.12
16505;HTU21D;8365;51.030;4.696;2023-04-03T17:03:29;16.24;34.46
16505;HTU21D;8365;51.030;4.696;2023-04-03T17:06:00;16.37;34.04
16505;HTU21D;8365;51.030;4.696;2023-04-03T17:08:30;16.30;34.66
16505;HTU21D;8365;51.030;4.696;2023-04-03T17:11:03;16.55;32.76
16505;HTU21D;8365;51.030;4.696;2023-04-03T17:13:33;15.90;34.39
16505;HTU21D;8365;51.030;4.696;2023-04-03T17:16:07;15.66;35.55
16505;HTU21D;8365;51.030;4.696;2023-04-03T17:18:38;15.31;35.04
16505;HTU21D;8365;51.030;4.696;2023-04-03T17:21:10;15.21;35.18
16505;HTU21D;8365;51.030;4.696;2023-04-03T17:23:44;15.36;36.86
16505;HTU21D;8365;51.030;4.696;2023-04-03T17:26:15;14.72;35.98
16505;HTU21D;8365;51.030;4.696;2023-04-03T17:28:46;14.71;37.33
16505;HTU21D;8365;51.030;4.696;2023-04-03T17:31:19;14.14;37.98
16505;HTU21D;8365;51.030;4.696;2023-04-03T17:33:50;13.60;37.37
16505;HTU21D;8365;51.030;4.696;2023-04-03T17:36:21;13.84;39.10
16505;HTU21D;8365;51.030;4.696;2023-04-03T17:38:51;13.22;38.73
16505;HTU21D;8365;51.030;4.696;2023-04-03T17:41:22;12.79;39.32
16505;HTU21D;8365;51.030;4.696;2023-04-03T17:43:52;12.28;39.91
16505;HTU21D;8365;51.030;4.696;2023-04-03T17:46:26;12.07;42.97
16505;HTU21D;8365;51.030;4.696;2023-04-03T17:48:57;11.91;42.65
16505;HTU21D;8365;51.030;4.696;2023-04-03T17:51:29;11.63;42.58
16505;HTU21D;8365;51.030;4.696;2023-04-03T17:53:59;11.44;43.39
16505;HTU21D;8365;51.030;4.696;2023-04-03T17:56:30;11.45;43.44
16505;HTU21D;8365;51.030;4.696;2023-04-03T17:59:00;11.32;44.49
16505;HTU21D;8365;51.030;4.696;2023-04-03T18:01:33;11.30;44.62
16505;HTU21D;8365;51.030;4.696;2023-04-03T18:04:05;11.11;44.12
16505;HTU21D;8365;51.030;4.696;2023-04-03T18:06:47;10.94;45.64
16505;HTU21D;8365;51.030;4.696;2023-04-03T18:09:20;10.75;45.70
16505;HTU21D;8365;51.030;4.696;2023-04-03T18:11:53;10.57;46.70